createdAt,value
2023-02-26T00:00:44.000Z,271.02
2023-02-26T00:02:09.000Z,271.02
2023-02-26T00:04:13.000Z,271.02
2023-02-26T00:05:37.000Z,271.09
2023-02-26T00:07:40.000Z,271.02
2023-02-26T00:10:30.000Z,270.9
2023-02-26T00:11:54.000Z,270.9
2023-02-26T00:13:58.000Z,270.9
2023-02-26T00:15:23.000Z,270.9
2023-02-26T00:17:26.000Z,270.96
2023-02-26T00:18:51.000Z,270.9
2023-02-26T00:20:54.000Z,270.9
2023-02-26T00:22:19.000Z,270.9
2023-02-26T00:24:22.000Z,270.84
2023-02-26T00:25:46.000Z,270.9
2023-02-26T00:27:50.000Z,270.84
2023-02-26T00:29:14.000Z,270.84
2023-02-26T00:31:18.000Z,270.84
2023-02-26T00:32:42.000Z,270.84
2023-02-26T00:34:46.000Z,270.77
2023-02-26T00:36:10.000Z,270.77
2023-02-26T00:38:14.000Z,270.77
2023-02-26T00:39:38.000Z,270.77
2023-02-26T00:41:42.000Z,270.84
2023-02-26T00:43:06.000Z,270.84
2023-02-26T00:45:10.000Z,270.84
2023-02-26T00:47:59.000Z,270.84
2023-02-26T00:49:24.000Z,270.77
2023-02-26T00:51:27.000Z,270.84
2023-02-26T00:52:52.000Z,270.84
2023-02-26T00:54:55.000Z,270.84
2023-02-26T00:56:20.000Z,270.84
2023-02-26T00:58:23.000Z,270.77
2023-02-26T00:59:48.000Z,270.77
2023-02-26T01:01:51.000Z,270.77
2023-02-26T01:03:16.000Z,270.71
2023-02-26T01:05:19.000Z,270.77
2023-02-26T01:06:44.000Z,270.77
2023-02-26T01:08:47.000Z,270.77
2023-02-26T01:10:12.000Z,270.84
2023-02-26T01:12:15.000Z,270.84
2023-02-26T01:13:40.000Z,270.77
2023-02-26T01:15:43.000Z,270.77
2023-02-26T01:17:08.000Z,270.84
2023-02-26T01:19:11.000Z,270.9
2023-02-26T01:20:36.000Z,270.84
2023-02-26T01:22:39.000Z,270.9
2023-02-26T01:25:28.000Z,270.9
2023-02-26T01:26:53.000Z,270.84
2023-02-26T01:28:56.000Z,270.9
2023-02-26T01:30:21.000Z,270.96
2023-02-26T01:32:24.000Z,270.84
2023-02-26T01:33:49.000Z,270.84
2023-02-26T01:35:52.000Z,270.84
2023-02-26T01:37:17.000Z,270.77
2023-02-26T01:39:20.000Z,270.77
2023-02-26T01:40:45.000Z,270.77
2023-02-26T01:42:48.000Z,270.77
2023-02-26T01:44:13.000Z,270.84
2023-02-26T01:46:16.000Z,270.77
2023-02-26T01:47:41.000Z,270.77
2023-02-26T01:49:44.000Z,270.77
2023-02-26T01:51:09.000Z,270.71
2023-02-26T01:53:12.000Z,270.71
2023-02-26T01:54:36.000Z,270.65
2023-02-26T01:56:40.000Z,270.65
2023-02-26T01:58:04.000Z,270.65
2023-02-26T02:00:08.000Z,270.65
2023-02-26T02:02:57.000Z,270.59
2023-02-26T02:04:22.000Z,270.59
2023-02-26T02:06:25.000Z,270.52
2023-02-26T02:07:50.000Z,270.52
2023-02-26T02:09:54.000Z,270.52
2023-02-26T02:11:18.000Z,270.46
2023-02-26T02:13:21.000Z,270.46
2023-02-26T02:14:46.000Z,270.4
2023-02-26T02:16:49.000Z,270.4
2023-02-26T02:18:14.000Z,270.4
2023-02-26T02:20:17.000Z,270.4
2023-02-26T02:21:42.000Z,270.34
2023-02-26T02:23:45.000Z,270.34
2023-02-26T02:25:10.000Z,270.4
2023-02-26T02:27:14.000Z,270.27
2023-02-26T02:28:38.000Z,270.27
2023-02-26T02:30:42.000Z,270.27
2023-02-26T02:32:06.000Z,270.27
2023-02-26T02:34:10.000Z,270.21
2023-02-26T02:35:34.000Z,270.21
2023-02-26T02:37:38.000Z,270.15
2023-02-26T02:40:27.000Z,270.21
2023-02-26T02:41:52.000Z,270.21
2023-02-26T02:43:55.000Z,270.21
2023-02-26T02:45:20.000Z,270.21
2023-02-26T02:47:23.000Z,270.15
2023-02-26T02:48:48.000Z,270.15
2023-02-26T02:50:51.000Z,270.15
2023-02-26T02:52:16.000Z,270.15
2023-02-26T02:54:19.000Z,270.09
2023-02-26T02:55:43.000Z,270.15
2023-02-26T02:57:47.000Z,270.15
2023-02-26T02:59:11.000Z,270.15
2023-02-26T03:01:15.000Z,270.02
2023-02-26T03:02:39.000Z,269.96
2023-02-26T03:04:43.000Z,269.96
2023-02-26T03:06:07.000Z,269.96
2023-02-26T03:08:11.000Z,269.96
2023-02-26T03:09:35.000Z,269.96
2023-02-26T03:11:39.000Z,269.96
2023-02-26T03:13:03.000Z,269.96
2023-02-26T03:15:07.000Z,269.96
2023-02-26T03:17:56.000Z,269.96
2023-02-26T03:19:20.000Z,269.9
2023-02-26T03:21:24.000Z,269.84
2023-02-26T03:22:48.000Z,269.84
2023-02-26T03:24:52.000Z,269.9
2023-02-26T03:26:16.000Z,269.84
2023-02-26T03:28:19.000Z,269.9
2023-02-26T03:29:44.000Z,269.9
2023-02-26T03:31:47.000Z,269.9
2023-02-26T03:33:12.000Z,269.9
2023-02-26T03:35:15.000Z,269.84
2023-02-26T03:36:40.000Z,269.84
2023-02-26T03:38:43.000Z,269.77
2023-02-26T03:40:08.000Z,269.77
2023-02-26T03:42:11.000Z,269.77
2023-02-26T03:43:36.000Z,269.84
2023-02-26T03:45:39.000Z,269.84
2023-02-26T03:47:04.000Z,269.84
2023-02-26T03:49:07.000Z,269.84
2023-02-26T03:50:32.000Z,269.9
2023-02-26T03:52:35.000Z,269.9
2023-02-26T03:55:24.000Z,269.9
2023-02-26T03:56:49.000Z,269.84
2023-02-26T03:58:52.000Z,269.84
2023-02-26T04:00:17.000Z,269.84
2023-02-26T04:02:20.000Z,269.9
2023-02-26T04:03:45.000Z,269.84
2023-02-26T04:05:48.000Z,269.9
2023-02-26T04:07:13.000Z,269.9
2023-02-26T04:09:16.000Z,269.96
2023-02-26T04:10:40.000Z,269.96
2023-02-26T04:12:44.000Z,270.02
2023-02-26T04:14:08.000Z,269.96
2023-02-26T04:16:12.000Z,269.9
2023-02-26T04:17:36.000Z,269.96
2023-02-26T04:19:40.000Z,269.96
2023-02-26T04:21:04.000Z,269.96
2023-02-26T04:23:08.000Z,269.96
2023-02-26T04:24:32.000Z,269.9
2023-02-26T04:26:36.000Z,269.9
2023-02-26T04:28:00.000Z,269.9
2023-02-26T04:30:04.000Z,269.96
2023-02-26T04:32:53.000Z,269.96
2023-02-26T04:34:17.000Z,269.96
2023-02-26T04:36:21.000Z,269.96
2023-02-26T04:37:46.000Z,269.96
2023-02-26T04:39:50.000Z,269.96
2023-02-26T04:41:14.000Z,269.96
2023-02-26T04:43:17.000Z,269.96
2023-02-26T04:44:42.000Z,269.9
2023-02-26T04:46:45.000Z,269.9
2023-02-26T04:48:10.000Z,269.9
2023-02-26T04:50:13.000Z,269.9
2023-02-26T04:51:37.000Z,269.84
2023-02-26T04:53:41.000Z,269.84
2023-02-26T04:55:05.000Z,269.84
2023-02-26T04:57:09.000Z,269.9
2023-02-26T04:58:33.000Z,269.9
2023-02-26T05:00:37.000Z,269.96
2023-02-26T05:02:01.000Z,270.02
2023-02-26T05:04:05.000Z,270.02
2023-02-26T05:05:29.000Z,269.96
2023-02-26T05:07:33.000Z,269.9
2023-02-26T05:10:22.000Z,269.9
2023-02-26T05:11:47.000Z,269.9
2023-02-26T05:13:50.000Z,269.9
2023-02-26T05:15:15.000Z,269.9
2023-02-26T05:17:18.000Z,269.84
2023-02-26T05:18:42.000Z,269.84
2023-02-26T05:20:46.000Z,269.84
2023-02-26T05:22:10.000Z,269.84
2023-02-26T05:24:14.000Z,269.84
2023-02-26T05:25:38.000Z,269.77
2023-02-26T05:27:42.000Z,269.71
2023-02-26T05:29:06.000Z,269.71
2023-02-26T05:31:10.000Z,269.71
2023-02-26T05:32:34.000Z,269.71
2023-02-26T05:34:38.000Z,269.65
2023-02-26T05:36:02.000Z,269.71
2023-02-26T05:38:05.000Z,269.65
2023-02-26T05:39:30.000Z,269.71
2023-02-26T05:41:33.000Z,269.71
2023-02-26T05:42:58.000Z,269.71
2023-02-26T05:45:01.000Z,269.65
2023-02-26T05:47:50.000Z,269.71
2023-02-26T05:49:15.000Z,269.77
2023-02-26T05:51:18.000Z,269.71
2023-02-26T05:52:43.000Z,269.65
2023-02-26T05:54:46.000Z,269.65
2023-02-26T05:56:11.000Z,269.65
2023-02-26T05:58:14.000Z,269.65
2023-02-26T05:59:38.000Z,269.65
2023-02-26T06:01:42.000Z,269.65
2023-02-26T06:03:06.000Z,269.65
2023-02-26T06:05:10.000Z,269.65
2023-02-26T06:06:34.000Z,269.65
2023-02-26T06:08:38.000Z,269.65
2023-02-26T06:10:02.000Z,269.71
2023-02-26T06:12:06.000Z,269.65
2023-02-26T06:13:30.000Z,269.65
2023-02-26T06:15:34.000Z,269.59
2023-02-26T06:16:58.000Z,269.65
2023-02-26T06:19:02.000Z,269.65
2023-02-26T06:20:26.000Z,269.65
2023-02-26T06:22:29.000Z,269.71
2023-02-26T06:25:19.000Z,269.71
2023-02-26T06:26:43.000Z,269.71
2023-02-26T06:28:46.000Z,269.71
2023-02-26T06:30:11.000Z,269.71
2023-02-26T06:32:14.000Z,269.77
2023-02-26T06:33:39.000Z,269.77
2023-02-26T06:35:43.000Z,269.84
2023-02-26T06:37:07.000Z,269.84
2023-02-26T06:39:11.000Z,269.84
2023-02-26T06:40:35.000Z,269.9
2023-02-26T06:42:38.000Z,269.9
2023-02-26T06:44:03.000Z,269.96
2023-02-26T06:46:06.000Z,269.96
2023-02-26T06:47:31.000Z,270.02
2023-02-26T06:49:34.000Z,270.09
2023-02-26T06:50:59.000Z,270.09
2023-02-26T06:53:02.000Z,270.02
2023-02-26T06:54:27.000Z,270.09
2023-02-26T06:56:30.000Z,270.15
2023-02-26T06:57:55.000Z,270.21
2023-02-26T06:59:58.000Z,270.27
2023-02-26T07:02:48.000Z,270.27
2023-02-26T07:04:13.000Z,270.27
2023-02-26T07:06:16.000Z,270.21
2023-02-26T07:07:50.000Z,270.27
2023-02-26T07:09:53.000Z,270.27
2023-02-26T07:11:18.000Z,270.27
2023-02-26T07:13:21.000Z,270.27
2023-02-26T07:14:46.000Z,270.27
2023-02-26T07:16:49.000Z,270.34
2023-02-26T07:18:14.000Z,270.4
2023-02-26T07:20:17.000Z,270.46
2023-02-26T07:21:41.000Z,270.46
2023-02-26T07:23:45.000Z,270.65
2023-02-26T07:25:09.000Z,270.77
2023-02-26T07:27:13.000Z,270.84
2023-02-26T07:28:37.000Z,270.9
2023-02-26T07:30:41.000Z,270.9
2023-02-26T07:32:05.000Z,270.96
2023-02-26T07:34:09.000Z,271.02
2023-02-26T07:35:33.000Z,271.09
2023-02-26T07:37:37.000Z,271.15
2023-02-26T07:41:58.000Z,271.27
2023-02-26T07:42:53.000Z,271.27
2023-02-26T07:44:17.000Z,271.34
2023-02-26T07:46:21.000Z,271.34
2023-02-26T07:47:45.000Z,271.34
2023-02-26T07:49:49.000Z,271.46
2023-02-26T07:51:13.000Z,271.52
2023-02-26T07:53:17.000Z,271.52
2023-02-26T07:54:41.000Z,271.52
2023-02-26T07:56:45.000Z,271.65
2023-02-26T07:58:09.000Z,271.65
2023-02-26T08:00:13.000Z,271.59
2023-02-26T08:01:37.000Z,271.59
2023-02-26T08:03:41.000Z,271.52
2023-02-26T08:05:05.000Z,271.52
2023-02-26T08:07:09.000Z,271.46
2023-02-26T08:08:33.000Z,271.46
2023-02-26T08:10:36.000Z,271.46
2023-02-26T08:12:04.000Z,271.46
2023-02-26T08:14:07.000Z,271.52
2023-02-26T08:15:32.000Z,271.52
2023-02-26T08:17:35.000Z,271.59
2023-02-26T08:20:18.000Z,271.59
2023-02-26T08:21:43.000Z,271.65
2023-02-26T08:23:46.000Z,271.71
2023-02-26T08:25:11.000Z,271.84
2023-02-26T08:27:14.000Z,271.9
2023-02-26T08:28:38.000Z,271.9
2023-02-26T08:30:42.000Z,271.9
2023-02-26T08:32:06.000Z,272.02
2023-02-26T08:34:10.000Z,272.02
2023-02-26T08:35:34.000Z,271.96
2023-02-26T08:37:38.000Z,271.96
2023-02-26T08:39:02.000Z,272.09
2023-02-26T08:41:06.000Z,272.21
2023-02-26T08:42:30.000Z,272.21
2023-02-26T08:44:34.000Z,272.15
2023-02-26T08:45:58.000Z,272.15
2023-02-26T08:48:02.000Z,272.27
2023-02-26T08:49:26.000Z,272.27
2023-02-26T08:51:30.000Z,272.4
2023-02-26T08:52:54.000Z,272.4
2023-02-26T08:54:58.000Z,272.59
2023-02-26T08:57:47.000Z,272.84
2023-02-26T08:59:12.000Z,272.9
2023-02-26T09:01:15.000Z,273.02
2023-02-26T09:02:39.000Z,273.02
2023-02-26T09:04:43.000Z,272.96
2023-02-26T09:06:07.000Z,273.02
2023-02-26T09:08:11.000Z,273.09
2023-02-26T09:09:35.000Z,273.02
2023-02-26T09:11:39.000Z,272.96
2023-02-26T09:13:03.000Z,273.02
2023-02-26T09:15:07.000Z,272.9
2023-02-26T09:16:31.000Z,272.9
2023-02-26T09:18:35.000Z,272.77
2023-02-26T09:19:59.000Z,272.77
2023-02-26T09:22:03.000Z,272.65
2023-02-26T09:23:28.000Z,272.65
2023-02-26T09:25:32.000Z,272.65
2023-02-26T09:26:56.000Z,272.71
2023-02-26T09:29:00.000Z,272.65
2023-02-26T09:30:24.000Z,272.71
2023-02-26T09:32:28.000Z,272.9
2023-02-26T09:35:17.000Z,272.77
2023-02-26T09:36:41.000Z,272.71
2023-02-26T09:38:45.000Z,272.65
2023-02-26T09:40:09.000Z,272.65
2023-02-26T09:42:13.000Z,272.71
2023-02-26T09:43:37.000Z,272.77
2023-02-26T09:45:41.000Z,272.9
2023-02-26T09:47:07.000Z,272.9
2023-02-26T09:49:10.000Z,273.02
2023-02-26T09:50:35.000Z,273.09
2023-02-26T09:52:38.000Z,273.09
2023-02-26T09:54:02.000Z,273.09
2023-02-26T09:56:06.000Z,273.09
2023-02-26T09:57:30.000Z,273.09
2023-02-26T09:59:34.000Z,272.96
2023-02-26T10:00:58.000Z,273.02
2023-02-26T10:03:02.000Z,272.96
2023-02-26T10:04:26.000Z,273.02
2023-02-26T10:06:30.000Z,273.15
2023-02-26T10:07:55.000Z,273.21
2023-02-26T10:09:58.000Z,273.34
2023-02-26T10:12:48.000Z,273.4
2023-02-26T10:14:12.000Z,273.46
2023-02-26T10:16:17.000Z,273.46
2023-02-26T10:17:41.000Z,273.46
2023-02-26T10:19:45.000Z,273.52
2023-02-26T10:21:10.000Z,273.65
2023-02-26T10:23:17.000Z,273.84
2023-02-26T10:24:43.000Z,273.65
2023-02-26T10:26:49.000Z,273.52
2023-02-26T10:28:16.000Z,273.52
2023-02-26T10:30:22.000Z,273.65
2023-02-26T10:31:48.000Z,273.71
2023-02-26T10:33:55.000Z,273.71
2023-02-26T10:35:21.000Z,273.65
2023-02-26T10:37:27.000Z,273.59
2023-02-26T10:38:54.000Z,273.59
2023-02-26T10:41:00.000Z,273.59
2023-02-26T10:42:26.000Z,273.59
2023-02-26T10:44:32.000Z,273.59
2023-02-26T10:45:59.000Z,273.65
2023-02-26T10:48:05.000Z,273.59
2023-02-26T10:50:56.000Z,273.59
2023-02-26T10:52:23.000Z,273.59
2023-02-26T10:54:29.000Z,273.65
2023-02-26T10:55:56.000Z,273.65
2023-02-26T10:58:02.000Z,273.71
2023-02-26T10:59:28.000Z,273.77
2023-02-26T11:01:34.000Z,273.9
2023-02-26T11:03:01.000Z,273.9
2023-02-26T11:05:07.000Z,273.9
2023-02-26T11:06:33.000Z,274.02
2023-02-26T11:08:40.000Z,274.09
2023-02-26T11:10:06.000Z,274.09
2023-02-26T11:12:12.000Z,274.09
2023-02-26T11:13:39.000Z,274.09
2023-02-26T11:15:45.000Z,273.96
2023-02-26T11:17:12.000Z,273.96
2023-02-26T11:19:18.000Z,273.9
2023-02-26T11:20:44.000Z,273.96
2023-02-26T11:22:50.000Z,274.02
2023-02-26T11:24:17.000Z,274.02
2023-02-26T11:26:23.000Z,274.02
2023-02-26T11:29:14.000Z,274.15
2023-02-26T11:30:41.000Z,274.15
2023-02-26T11:32:47.000Z,274.02
2023-02-26T11:34:13.000Z,274.02
2023-02-26T11:36:19.000Z,273.96
2023-02-26T11:37:46.000Z,273.96
2023-02-26T11:39:52.000Z,273.96
2023-02-26T11:41:19.000Z,273.96
2023-02-26T11:43:25.000Z,274.02
2023-02-26T11:44:51.000Z,274.15
2023-02-26T11:46:57.000Z,274.21
2023-02-26T11:48:24.000Z,274.15
2023-02-26T11:50:30.000Z,274.09
2023-02-26T11:51:56.000Z,274.09
2023-02-26T11:54:03.000Z,274.09
2023-02-26T11:55:29.000Z,274.09
2023-02-26T11:57:35.000Z,273.96
2023-02-26T11:59:02.000Z,273.9
2023-02-26T12:01:08.000Z,273.9
2023-02-26T12:02:34.000Z,273.84
2023-02-26T12:04:41.000Z,273.84
2023-02-26T12:07:32.000Z,273.84
2023-02-26T12:08:58.000Z,273.77
2023-02-26T12:11:04.000Z,273.77
2023-02-26T12:12:31.000Z,273.77
2023-02-26T12:14:37.000Z,273.77
2023-02-26T12:16:04.000Z,273.77
2023-02-26T12:18:10.000Z,273.84
2023-02-26T12:19:40.000Z,273.9
2023-02-26T12:21:46.000Z,273.9
2023-02-26T12:23:12.000Z,273.9
2023-02-26T12:25:18.000Z,273.9
2023-02-26T12:26:45.000Z,273.84
2023-02-26T12:28:51.000Z,273.77
2023-02-26T12:30:18.000Z,273.77
2023-02-26T12:32:24.000Z,273.77
2023-02-26T12:33:50.000Z,273.77
2023-02-26T12:35:57.000Z,273.71
2023-02-26T12:37:23.000Z,273.77
2023-02-26T12:39:29.000Z,273.9
2023-02-26T12:40:56.000Z,273.96
2023-02-26T12:43:02.000Z,273.9
2023-02-26T12:45:53.000Z,273.84
2023-02-26T12:47:20.000Z,273.96
2023-02-26T12:49:26.000Z,274.21
2023-02-26T12:50:52.000Z,274.21
2023-02-26T12:52:59.000Z,274.09
2023-02-26T12:54:25.000Z,274.09
2023-02-26T12:56:31.000Z,273.96
2023-02-26T12:57:58.000Z,273.96
2023-02-26T13:00:04.000Z,274.02
2023-02-26T13:01:30.000Z,274.09
2023-02-26T13:03:37.000Z,274.15
2023-02-26T13:05:04.000Z,274.21
2023-02-26T13:07:10.000Z,274.21
2023-02-26T13:08:37.000Z,274.27
2023-02-26T13:10:43.000Z,274.34
2023-02-26T13:12:09.000Z,274.34
2023-02-26T13:14:15.000Z,274.46
2023-02-26T13:15:42.000Z,274.52
2023-02-26T13:17:48.000Z,274.59
2023-02-26T13:19:14.000Z,274.52
2023-02-26T13:21:21.000Z,274.52
2023-02-26T13:24:12.000Z,274.65
2023-02-26T13:25:38.000Z,274.71
2023-02-26T13:27:44.000Z,274.65
2023-02-26T13:29:11.000Z,274.65
2023-02-26T13:31:17.000Z,274.71
2023-02-26T13:32:44.000Z,274.71
2023-02-26T13:34:50.000Z,274.77
2023-02-26T13:36:16.000Z,274.77
2023-02-26T13:38:22.000Z,274.9
2023-02-26T13:39:49.000Z,274.9
2023-02-26T13:41:55.000Z,274.84
2023-02-26T13:43:22.000Z,274.84
2023-02-26T13:45:28.000Z,274.77
2023-02-26T13:46:54.000Z,274.84
2023-02-26T13:49:01.000Z,274.65
2023-02-26T13:50:27.000Z,274.77
2023-02-26T13:52:33.000Z,274.9
2023-02-26T13:54:00.000Z,275.02
2023-02-26T13:56:06.000Z,275.02
2023-02-26T13:57:32.000Z,275.15
2023-02-26T13:59:39.000Z,275.21
2023-02-26T14:02:30.000Z,275.27
2023-02-26T14:03:56.000Z,275.4
2023-02-26T14:06:02.000Z,275.52
2023-02-26T14:07:29.000Z,275.52
2023-02-26T14:09:35.000Z,275.46
2023-02-26T14:11:01.000Z,275.4
2023-02-26T14:13:08.000Z,275.27
2023-02-26T14:14:34.000Z,275.27
2023-02-26T14:16:40.000Z,275.21
2023-02-26T14:18:07.000Z,275.15
2023-02-26T14:20:13.000Z,275.15
2023-02-26T14:21:39.000Z,275.15
2023-02-26T14:23:46.000Z,275.09
2023-02-26T14:25:12.000Z,275.09
2023-02-26T14:27:18.000Z,275.21
2023-02-26T14:28:45.000Z,275.27
2023-02-26T14:30:51.000Z,275.21
2023-02-26T14:32:18.000Z,275.21
2023-02-26T14:34:24.000Z,275.27
2023-02-26T14:35:50.000Z,275.34
2023-02-26T14:37:57.000Z,275.27
2023-02-26T14:40:48.000Z,275.09
2023-02-26T14:42:14.000Z,275.09
2023-02-26T14:44:21.000Z,274.96
2023-02-26T14:45:47.000Z,274.96
2023-02-26T14:47:53.000Z,274.84
2023-02-26T14:49:20.000Z,274.84
2023-02-26T14:51:26.000Z,274.84
2023-02-26T14:52:53.000Z,274.84
2023-02-26T14:54:59.000Z,274.9
2023-02-26T14:56:26.000Z,275.02
2023-02-26T14:58:32.000Z,275.15
2023-02-26T14:59:58.000Z,275.09
2023-02-26T15:02:04.000Z,275.02
2023-02-26T15:03:31.000Z,275.09
2023-02-26T15:05:37.000Z,275.09
2023-02-26T15:07:04.000Z,275.15
2023-02-26T15:09:10.000Z,275.21
2023-02-26T15:10:36.000Z,275.15
2023-02-26T15:12:42.000Z,275.09
2023-02-26T15:14:09.000Z,275.02
2023-02-26T15:16:15.000Z,274.9
2023-02-26T15:19:06.000Z,274.84
2023-02-26T15:20:33.000Z,274.84
2023-02-26T15:22:39.000Z,274.84
2023-02-26T15:24:06.000Z,274.84
2023-02-26T15:26:12.000Z,274.77
2023-02-26T15:27:38.000Z,274.77
2023-02-26T15:29:44.000Z,274.77
2023-02-26T15:31:11.000Z,274.71
2023-02-26T15:33:18.000Z,274.71
2023-02-26T15:34:44.000Z,274.65
2023-02-26T15:36:50.000Z,274.65
2023-02-26T15:38:18.000Z,274.65
2023-02-26T15:40:24.000Z,274.65
2023-02-26T15:41:50.000Z,274.59
2023-02-26T15:43:56.000Z,274.59
2023-02-26T15:45:23.000Z,274.59
2023-02-26T15:47:29.000Z,274.52
2023-02-26T15:48:56.000Z,274.52
2023-02-26T15:51:02.000Z,274.52
2023-02-26T15:52:28.000Z,274.46
2023-02-26T15:54:34.000Z,274.46
2023-02-26T15:57:26.000Z,274.4
2023-02-26T15:58:52.000Z,274.4
2023-02-26T16:00:58.000Z,274.4
2023-02-26T16:02:25.000Z,274.34
2023-02-26T16:04:31.000Z,274.34
2023-02-26T16:05:58.000Z,274.34
2023-02-26T16:08:04.000Z,274.27
2023-02-26T16:09:30.000Z,274.27
2023-02-26T16:11:36.000Z,274.21
2023-02-26T16:13:03.000Z,274.21
2023-02-26T16:15:09.000Z,274.15
2023-02-26T16:16:35.000Z,274.15
2023-02-26T16:18:42.000Z,274.15
2023-02-26T16:20:08.000Z,274.15
2023-02-26T16:22:15.000Z,274.15
2023-02-26T16:23:41.000Z,274.15
2023-02-26T16:25:48.000Z,274.09
2023-02-26T16:27:14.000Z,274.09
2023-02-26T16:29:20.000Z,274.09
2023-02-26T16:30:47.000Z,274.02
2023-02-26T16:32:53.000Z,274.02
2023-02-26T16:35:44.000Z,273.96
2023-02-26T16:37:11.000Z,273.96
2023-02-26T16:39:17.000Z,273.96
2023-02-26T16:40:43.000Z,273.9
2023-02-26T16:42:50.000Z,273.9
2023-02-26T16:44:16.000Z,273.9
2023-02-26T16:46:22.000Z,273.84
2023-02-26T16:47:49.000Z,273.84
2023-02-26T16:49:55.000Z,273.84
2023-02-26T16:51:22.000Z,273.84
2023-02-26T16:53:28.000Z,273.84
2023-02-26T16:54:54.000Z,273.77
2023-02-26T16:57:00.000Z,273.77
2023-02-26T16:58:27.000Z,273.77
2023-02-26T17:00:33.000Z,273.77
2023-02-26T17:02:00.000Z,273.71
2023-02-26T17:04:06.000Z,273.71
2023-02-26T17:05:32.000Z,273.71
2023-02-26T17:07:38.000Z,273.65
2023-02-26T17:09:05.000Z,273.71
2023-02-26T17:11:11.000Z,273.65
2023-02-26T17:14:02.000Z,273.65
2023-02-26T17:15:27.000Z,273.65
2023-02-26T17:17:32.000Z,273.65
2023-02-26T17:18:59.000Z,273.65
2023-02-26T17:21:04.000Z,273.59
2023-02-26T17:22:28.000Z,273.59
2023-02-26T17:24:33.000Z,273.59
2023-02-26T17:25:58.000Z,273.59
2023-02-26T17:28:02.000Z,273.59
2023-02-26T17:29:28.000Z,273.52
2023-02-26T17:31:31.000Z,273.52
2023-02-26T17:32:57.000Z,273.52
2023-02-26T17:35:00.000Z,273.52
2023-02-26T17:36:25.000Z,273.52
2023-02-26T17:38:28.000Z,273.46
2023-02-26T17:39:53.000Z,273.52
2023-02-26T17:41:57.000Z,273.52
2023-02-26T17:43:21.000Z,273.52
2023-02-26T17:45:25.000Z,273.46
2023-02-26T17:46:50.000Z,273.46
2023-02-26T17:48:53.000Z,273.46
2023-02-26T17:51:42.000Z,273.46
2023-02-26T17:53:07.000Z,273.46
2023-02-26T17:55:11.000Z,273.46
2023-02-26T17:56:35.000Z,273.4
2023-02-26T17:58:39.000Z,273.46
2023-02-26T18:00:04.000Z,273.4
2023-02-26T18:02:07.000Z,273.4
2023-02-26T18:03:32.000Z,273.4
2023-02-26T18:05:36.000Z,273.4
2023-02-26T18:07:00.000Z,273.4
2023-02-26T18:09:04.000Z,273.34
2023-02-26T18:10:28.000Z,273.34
2023-02-26T18:12:32.000Z,273.34
2023-02-26T18:13:56.000Z,273.27
2023-02-26T18:16:00.000Z,273.21
2023-02-26T18:17:24.000Z,273.27
2023-02-26T18:19:28.000Z,273.21
2023-02-26T18:20:52.000Z,273.21
2023-02-26T18:22:56.000Z,273.15
2023-02-26T18:24:20.000Z,273.15
2023-02-26T18:26:24.000Z,273.15
2023-02-26T18:29:13.000Z,273.15
2023-02-26T18:30:37.000Z,273.09
2023-02-26T18:32:41.000Z,273.09
2023-02-26T18:34:06.000Z,273.09
2023-02-26T18:36:09.000Z,273.02
2023-02-26T18:37:34.000Z,273.02
2023-02-26T18:39:37.000Z,273.02
2023-02-26T18:41:02.000Z,272.96
2023-02-26T18:43:05.000Z,272.9
2023-02-26T18:44:29.000Z,272.9
2023-02-26T18:46:33.000Z,272.9
2023-02-26T18:47:57.000Z,272.77
2023-02-26T18:50:01.000Z,272.71
2023-02-26T18:51:26.000Z,272.77
2023-02-26T18:53:30.000Z,272.84
2023-02-26T18:54:54.000Z,272.84
2023-02-26T18:56:58.000Z,272.84
2023-02-26T18:58:22.000Z,272.84
2023-02-26T19:00:26.000Z,272.77
2023-02-26T19:01:50.000Z,272.84
2023-02-26T19:03:54.000Z,272.84
2023-02-26T19:06:44.000Z,272.84
2023-02-26T19:08:08.000Z,272.84
2023-02-26T19:10:11.000Z,272.77
2023-02-26T19:11:36.000Z,272.71
2023-02-26T19:13:39.000Z,272.65
2023-02-26T19:15:04.000Z,272.71
2023-02-26T19:17:07.000Z,272.71
2023-02-26T19:18:32.000Z,272.71
2023-02-26T19:20:35.000Z,272.71
2023-02-26T19:22:00.000Z,272.65
2023-02-26T19:24:03.000Z,272.59
2023-02-26T19:25:28.000Z,272.59
2023-02-26T19:27:31.000Z,272.59
2023-02-26T19:28:56.000Z,272.59
2023-02-26T19:30:59.000Z,272.52
2023-02-26T19:32:24.000Z,272.59
2023-02-26T19:34:28.000Z,272.46
2023-02-26T19:35:52.000Z,272.52
2023-02-26T19:37:56.000Z,272.52
2023-02-26T19:39:20.000Z,272.52
2023-02-26T19:41:24.000Z,272.52
2023-02-26T19:44:13.000Z,272.46
2023-02-26T19:48:09.000Z,272.52
2023-02-26T19:49:33.000Z,272.4
2023-02-26T19:51:37.000Z,272.27
2023-02-26T19:53:01.000Z,272.27
2023-02-26T19:55:05.000Z,272.27
2023-02-26T19:56:29.000Z,272.21
2023-02-26T19:58:33.000Z,272.21
2023-02-26T19:59:57.000Z,272.15
2023-02-26T20:02:01.000Z,272.21
2023-02-26T20:03:25.000Z,272.21
2023-02-26T20:05:29.000Z,272.15
2023-02-26T20:06:53.000Z,272.15
2023-02-26T20:08:57.000Z,272.09
2023-02-26T20:10:21.000Z,272.09
2023-02-26T20:12:25.000Z,272.15
2023-02-26T20:13:49.000Z,272.09
2023-02-26T20:15:53.000Z,272.09
2023-02-26T20:17:17.000Z,272.09
2023-02-26T20:19:21.000Z,272.15
2023-02-26T20:22:10.000Z,272.15
2023-02-26T20:23:34.000Z,272.09
2023-02-26T20:25:38.000Z,271.96
2023-02-26T20:27:02.000Z,271.9
2023-02-26T20:29:06.000Z,271.77
2023-02-26T20:30:31.000Z,271.71
2023-02-26T20:32:34.000Z,271.77
2023-02-26T20:33:59.000Z,271.71
2023-02-26T20:36:03.000Z,271.71
2023-02-26T20:37:27.000Z,271.71
2023-02-26T20:39:30.000Z,271.77
2023-02-26T20:40:55.000Z,271.77
2023-02-26T20:42:58.000Z,271.71
2023-02-26T20:44:23.000Z,271.71
2023-02-26T20:46:26.000Z,271.65
2023-02-26T20:47:51.000Z,271.71
2023-02-26T20:49:55.000Z,271.71
2023-02-26T20:51:19.000Z,271.71
2023-02-26T20:53:22.000Z,271.59
2023-02-26T20:54:47.000Z,271.65
2023-02-26T20:56:50.000Z,271.59
2023-02-26T20:59:39.000Z,271.52
2023-02-26T21:01:04.000Z,271.52
2023-02-26T21:03:07.000Z,271.52
2023-02-26T21:04:32.000Z,271.52
2023-02-26T21:06:35.000Z,271.52
2023-02-26T21:07:59.000Z,271.52
2023-02-26T21:10:03.000Z,271.46
2023-02-26T21:11:27.000Z,271.46
2023-02-26T21:13:31.000Z,271.46
2023-02-26T21:14:55.000Z,271.46
2023-02-26T21:16:59.000Z,271.34
2023-02-26T21:18:23.000Z,271.4
2023-02-26T21:20:27.000Z,271.46
2023-02-26T21:21:51.000Z,271.4
2023-02-26T21:23:55.000Z,271.4
2023-02-26T21:25:19.000Z,271.4
2023-02-26T21:27:23.000Z,271.34
2023-02-26T21:28:47.000Z,271.34
2023-02-26T21:30:50.000Z,271.27
2023-02-26T21:32:15.000Z,271.34
2023-02-26T21:34:19.000Z,271.27
2023-02-26T21:37:20.000Z,271.27
2023-02-26T21:38:45.000Z,271.34
2023-02-26T21:40:48.000Z,271.27
2023-02-26T21:42:13.000Z,271.27
2023-02-26T21:44:16.000Z,271.27
2023-02-26T21:45:41.000Z,271.27
2023-02-26T21:47:44.000Z,271.21
2023-02-26T21:49:09.000Z,271.21
2023-02-26T21:51:12.000Z,271.21
2023-02-26T21:52:36.000Z,271.21
2023-02-26T21:54:40.000Z,271.15
2023-02-26T21:56:04.000Z,271.15
2023-02-26T21:58:08.000Z,271.15
2023-02-26T21:59:32.000Z,271.09
2023-02-26T22:01:36.000Z,271.02
2023-02-26T22:03:00.000Z,271.02
2023-02-26T22:05:04.000Z,270.96
2023-02-26T22:06:28.000Z,270.84
2023-02-26T22:08:32.000Z,270.77
2023-02-26T22:09:56.000Z,270.77
2023-02-26T22:12:00.000Z,270.77
2023-02-26T22:14:49.000Z,270.65
2023-02-26T22:16:13.000Z,270.71
2023-02-26T22:18:17.000Z,270.65
2023-02-26T22:19:41.000Z,270.65
2023-02-26T22:21:45.000Z,270.65
2023-02-26T22:23:09.000Z,270.65
2023-02-26T22:25:13.000Z,270.65
2023-02-26T22:26:37.000Z,270.65
2023-02-26T22:28:41.000Z,270.59
2023-02-26T22:30:05.000Z,270.59
2023-02-26T22:32:09.000Z,270.59
2023-02-26T22:33:33.000Z,270.59